Time;durP1;ratioP1;P1;durP2;ratioP2;P2;SDS_P1;SDS_P2;PMS_P1;PMS_P2;Temp;Humidity;BMP_temperature;BMP_pressure;BME280_temperature;BME280_humidity;BME280_pressure;Samples;Min_cycle;Max_cycle;Signal;HPM_P1;HPM_P2
2023/06/14 00:01:46;;;;;;;8.70;6.10;;;22.60;1.00;;;;;;5074595;28;20184;-89
2023/06/14 00:04:16;;;;;;;6.87;5.63;;;22.50;99.90;;;;;;5072679;28;20175;-96
2023/06/14 00:07:16;;;;;;;8.73;5.77;;;22.50;99.90;;;;;;5054281;28;20221;-96
2023/06/14 00:10:31;;;;;;;9.17;6.20;;;22.40;99.90;;;;;;5074567;28;20578;-94
2023/06/14 00:13:00;;;;;;;7.57;6.07;;;22.40;1.00;;;;;;5075936;28;20203;-94
2023/06/14 00:15:55;;;;;;;11.17;6.00;;;22.30;1.00;;;;;;5058311;28;20194;-86
2023/06/14 00:18:51;;;;;;;10.27;6.50;;;22.20;1.00;;;;;;5063390;28;20196;-93
2023/06/14 00:21:59;;;;;;;12.33;6.10;;;22.10;99.90;;;;;;5080908;28;20168;-78
2023/06/14 00:25:12;;;;;;;8.80;5.70;;;22.10;99.90;;;;;;5079156;28;20161;-80
2023/06/14 00:28:16;;;;;;;10.10;6.00;;;22.00;99.90;;;;;;5079019;28;20232;-80
2023/06/14 00:30:46;;;;;;;9.60;5.80;;;22.10;99.90;;;;;;5062461;28;20186;-84
2023/06/14 00:33:26;;;;;;;6.93;5.63;;;22.00;99.90;;;;;;5080389;28;20242;-81
2023/06/14 00:36:15;;;;;;;7.50;6.03;;;22.00;1.00;;;;;;5063177;28;20198;-80
2023/06/14 00:38:50;;;;;;;12.67;5.93;;;21.90;1.00;;;;;;5063849;28;20173;-82
2023/06/14 00:42:05;;;;;;;9.27;6.13;;;21.90;1.00;;;;;;5080957;28;20236;-81
2023/06/14 00:48:27;;;;;;;8.37;5.73;;;21.90;99.90;;;;;;5080786;28;20197;-80
2023/06/14 00:51:10;;;;;;;8.20;5.60;;;21.80;99.90;;;;;;5080622;28;20174;-79
2023/06/14 00:54:13;;;;;;;6.67;5.43;;;21.80;1.00;;;;;;5077764;28;20186;-81
2023/06/14 01:03:33;;;;;;;9.10;6.10;;;21.70;86.20;;;;;;5080431;28;20179;-82
2023/06/14 01:13:29;;;;;;;9.47;5.77;;;21.60;99.90;;;;;;5072575;28;20171;-96
2023/06/14 01:26:45;;;;;;;7.77;5.97;;;21.50;1.00;;;;;;5078386;28;20175;-95
2023/06/14 01:29:38;;;;;;;7.97;5.93;;;21.50;1.00;;;;;;5078230;28;20271;-89
2023/06/14 01:35:33;;;;;;;9.03;6.40;;;21.40;1.00;;;;;;5070650;28;20191;-85
2023/06/14 01:41:46;;;;;;;14.83;6.70;;;21.10;1.00;;;;;;5055631;28;20144;-78
2023/06/14 01:44:35;;;;;;;8.40;6.63;;;21.00;99.90;;;;;;5058237;28;20172;-81
2023/06/14 01:50:23;;;;;;;9.43;6.40;;;20.90;99.90;;;;;;5058177;28;20168;-78
2023/06/14 01:52:52;;;;;;;10.50;7.40;;;20.90;99.90;;;;;;5058306;28;20165;-79
2023/06/14 01:55:21;;;;;;;10.77;6.83;;;20.90;1.00;;;;;;5057972;28;20150;-78
2023/06/14 01:57:52;;;;;;;9.93;6.70;;;20.90;99.90;;;;;;5054240;28;20190;-96
2023/06/14 02:00:24;;;;;;;8.73;6.80;;;20.80;99.90;;;;;;5051278;28;20200;-85
2023/06/14 02:02:54;;;;;;;9.73;7.13;;;20.70;1.00;;;;;;5055407;28;20142;-89
2023/06/14 02:05:24;;;;;;;8.83;7.10;;;20.70;1.00;;;;;;5057245;28;20179;-78
2023/06/14 02:07:53;;;;;;;11.03;6.83;;;20.70;1.00;;;;;;5057695;28;20206;-87
2023/06/14 02:10:21;;;;;;;9.33;7.03;;;20.60;1.00;;;;;;5058669;28;20219;-81
2023/06/14 02:12:47;;;;;;;10.00;7.00;;;20.60;1.00;;;;;;5058013;28;20164;-83
2023/06/14 02:16:05;;;;;;;8.27;6.63;;;20.60;1.00;;;;;;5057828;28;20208;-79
2023/06/14 02:19:01;;;;;;;9.07;7.23;;;20.50;1.00;;;;;;5057929;28;20148;-80
2023/06/14 02:24:59;;;;;;;9.23;7.03;;;20.40;1.00;;;;;;5057842;28;20169;-78
2023/06/14 02:27:37;;;;;;;9.67;6.97;;;20.30;1.00;;;;;;5056251;28;20309;-82
2023/06/14 02:30:41;;;;;;;10.63;7.00;;;20.20;1.00;;;;;;5053933;28;20171;-92
2023/06/14 02:33:47;;;;;;;9.33;7.33;;;20.20;1.00;;;;;;5048022;28;20155;-94
2023/06/14 02:36:24;;;;;;;8.47;7.23;;;20.20;1.00;;;;;;5060177;28;20195;-96
2023/06/14 02:39:28;;;;;;;10.67;7.27;;;20.10;1.00;;;;;;5049160;28;20167;-92
2023/06/14 02:41:56;;;;;;;11.27;7.40;;;20.20;16.90;;;;;;5050152;28;20514;-94
2023/06/14 02:44:30;;;;;;;11.63;7.10;;;20.10;93.70;;;;;;5055840;28;20170;-84
2023/06/14 02:47:15;;;;;;;9.83;7.57;;;20.00;97.40;;;;;;5075727;28;20219;-83
2023/06/14 02:50:09;;;;;;;8.50;7.07;;;20.00;99.90;;;;;;5058855;28;20170;-89
2023/06/14 02:52:50;;;;;;;12.27;7.60;;;20.00;99.90;;;;;;5073921;28;20158;-91
2023/06/14 02:55:31;;;;;;;10.60;8.00;;;19.90;99.90;;;;;;5056072;28;20193;-94
2023/06/14 02:58:14;;;;;;;10.90;7.20;;;19.90;99.90;;;;;;5072280;28;20146;-89
2023/06/14 03:00:43;;;;;;;11.20;8.03;;;19.90;99.90;;;;;;5070378;28;20627;-96
2023/06/14 03:03:15;;;;;;;10.17;7.80;;;19.80;99.90;;;;;;5052644;28;20170;-92
2023/06/14 03:05:51;;;;;;;11.27;7.80;;;19.90;99.90;;;;;;5037852;28;20197;-82
2023/06/14 03:08:19;;;;;;;11.77;8.27;;;19.80;99.90;;;;;;5070622;28;20200;-91
2023/06/14 03:10:47;;;;;;;10.30;7.50;;;19.80;99.90;;;;;;5070749;28;20188;-92
2023/06/14 03:13:21;;;;;;;13.23;8.70;;;19.80;99.90;;;;;;5055574;28;20163;-88
2023/06/14 03:15:50;;;;;;;11.80;7.83;;;19.70;99.90;;;;;;5074580;28;20169;-86
2023/06/14 03:18:22;;;;;;;10.47;7.80;;;19.70;99.90;;;;;;5061375;28;20237;-86
2023/06/14 03:21:00;;;;;;;9.13;8.10;;;19.70;99.90;;;;;;5061024;28;20156;-82
2023/06/14 03:23:34;;;;;;;9.03;7.30;;;19.60;99.90;;;;;;5077864;28;20162;-78
2023/06/14 03:26:12;;;;;;;10.40;8.13;;;19.60;99.90;;;;;;5077919;28;20182;-81
2023/06/14 03:28:53;;;;;;;12.53;7.87;;;19.60;99.90;;;;;;5077404;28;20206;-79
2023/06/14 03:34:41;;;;;;;9.50;7.73;;;19.70;99.90;;;;;;5076354;28;20174;-84
2023/06/14 03:37:07;;;;;;;12.10;8.67;;;19.60;99.90;;;;;;5056961;28;20230;-86
2023/06/14 03:39:32;;;;;;;12.50;8.23;;;19.50;99.90;;;;;;5057666;28;20187;-80
2023/06/14 03:42:02;;;;;;;8.93;7.80;;;19.50;99.90;;;;;;5057158;28;20176;-80
2023/06/14 03:44:31;;;;;;;9.83;8.13;;;19.40;99.90;;;;;;5040943;28;20248;-85
2023/06/14 03:47:04;;;;;;;9.53;7.80;;;19.40;99.90;;;;;;5059471;28;20159;-83
2023/06/14 03:59:36;;;;;;;13.40;8.83;;;19.20;99.90;;;;;;5061368;28;20261;-78
2023/06/14 04:05:34;;;;;;;12.53;8.43;;;19.10;99.90;;;;;;5059511;28;20206;-91
2023/06/14 04:11:22;;;;;;;12.50;7.93;;;19.20;99.90;;;;;;5055074;28;20669;-93
2023/06/14 04:14:37;;;;;;;12.53;8.43;;;19.30;99.90;;;;;;5054408;28;20262;-95
2023/06/14 04:20:34;;;;;;;11.17;8.17;;;19.40;99.90;;;;;;5060929;28;20250;-88
2023/06/14 04:26:29;;;;;;;10.70;8.80;;;19.30;99.90;;;;;;5061115;28;20230;-81
2023/06/14 04:29:03;;;;;;;12.97;8.33;;;19.30;99.90;;;;;;5060650;28;20203;-83
2023/06/14 04:35:15;;;;;;;11.77;8.50;;;19.40;99.90;;;;;;5059968;28;20214;-84
2023/06/14 04:41:11;;;;;;;9.67;7.77;;;19.60;99.90;;;;;;5079312;28;20142;-80
2023/06/14 04:43:50;;;;;;;11.00;8.07;;;19.60;99.90;;;;;;5079392;28;20171;-78
2023/06/14 04:46:46;;;;;;;12.33;8.47;;;19.70;99.90;;;;;;5078385;28;20237;-84
2023/06/14 04:52:37;;;;;;;13.17;8.30;;;19.80;99.90;;;;;;5078785;28;20169;-80
2023/06/14 04:55:05;;;;;;;13.60;8.87;;;19.70;99.90;;;;;;5078506;28;20144;-81
2023/06/14 04:57:31;;;;;;;11.37;8.17;;;19.80;99.90;;;;;;5077734;28;20218;-80
2023/06/14 05:00:20;;;;;;;11.37;7.90;;;19.90;99.90;;;;;;5059896;28;20202;-79
2023/06/14 05:02:50;;;;;;;10.20;7.63;;;20.00;99.90;;;;;;5042881;28;20193;-78
2023/06/14 05:05:21;;;;;;;9.50;8.30;;;20.00;62.20;;;;;;5077330;28;20157;-80
2023/06/14 05:07:58;;;;;;;12.07;7.87;;;19.90;99.90;;;;;;5077563;28;20195;-82
2023/06/14 05:10:29;;;;;;;11.53;7.80;;;19.80;92.60;;;;;;5076173;28;20166;-82
2023/06/14 05:13:41;;;;;;;9.93;7.70;;;19.80;56.00;;;;;;5075996;28;20191;-82
2023/06/14 05:16:35;;;;;;;10.37;8.13;;;19.80;99.90;;;;;;5077864;28;20192;-83
2023/06/14 05:19:06;;;;;;;10.93;8.13;;;19.60;99.90;;;;;;5075791;28;20227;-84
2023/06/14 05:28:05;;;;;;;14.63;8.73;;;19.90;99.90;;;;;;5075653;28;20218;-82
2023/06/14 05:30:35;;;;;;;10.47;8.47;;;19.90;1.00;;;;;;5058752;28;20183;-81
2023/06/14 05:33:01;;;;;;;11.23;7.87;;;19.90;99.90;;;;;;5065744;28;20194;-83
2023/06/14 05:35:27;;;;;;;12.57;8.13;;;20.10;99.90;;;;;;5041671;28;20183;-79
2023/06/14 05:37:53;;;;;;;12.43;7.40;;;20.50;1.10;;;;;;5058824;28;20244;-87
2023/06/14 05:40:21;;;;;;;12.37;8.37;;;20.80;1.00;;;;;;5061383;28;20284;-83
2023/06/14 05:42:46;;;;;;;13.50;7.93;;;21.10;99.90;;;;;;5058301;28;20180;-83
2023/06/14 05:45:12;;;;;;;8.90;7.80;;;21.10;99.90;;;;;;5057837;28;20265;-82
2023/06/14 05:47:38;;;;;;;10.73;7.63;;;21.20;99.90;;;;;;5038131;28;20194;-85
2023/06/14 05:50:06;;;;;;;12.17;7.60;;;21.10;99.90;;;;;;5071352;28;20218;-84
2023/06/14 05:52:31;;;;;;;11.77;7.87;;;21.10;1.00;;;;;;5056672;28;20551;-82
2023/06/14 05:54:57;;;;;;;14.53;8.07;;;21.40;99.90;;;;;;5057476;28;20250;-85
2023/06/14 05:57:23;;;;;;;10.87;7.30;;;21.60;99.90;;;;;;5058710;28;20191;-82
2023/06/14 05:59:50;;;;;;;10.90;7.90;;;21.90;1.00;;;;;;5065914;28;20633;-81
2023/06/14 06:02:16;;;;;;;9.87;7.70;;;21.90;99.90;;;;;;5076037;28;20183;-79
2023/06/14 06:04:41;;;;;;;10.07;7.07;;;22.00;99.90;;;;;;5076458;28;20268;-82
2023/06/14 06:07:07;;;;;;;11.67;7.33;;;21.80;1.00;;;;;;5076707;28;20204;-79
2023/06/14 06:09:34;;;;;;;13.33;7.97;;;22.00;99.90;;;;;;5073730;28;20229;-78
2023/06/14 06:12:01;;;;;;;13.13;8.10;;;22.00;99.90;;;;;;5074476;28;20179;-82
2023/06/14 06:14:27;;;;;;;9.87;7.77;;;22.10;1.00;;;;;;5073407;28;20163;-77
2023/06/14 06:16:54;;;;;;;8.73;7.33;;;22.00;1.00;;;;;;5068049;28;20192;-80
2023/06/14 06:19:25;;;;;;;12.80;7.47;;;22.00;1.00;;;;;;5056869;28;20161;-78
2023/06/14 06:21:54;;;;;;;13.40;7.40;;;22.20;1.00;;;;;;5056363;28;20167;-79
2023/06/14 06:24:23;;;;;;;14.10;7.70;;;22.20;1.00;;;;;;5055816;28;20262;-79
2023/06/14 06:26:48;;;;;;;14.43;7.20;;;22.20;99.90;;;;;;5054222;28;20529;-81
2023/06/14 06:29:14;;;;;;;12.50;7.53;;;22.20;1.00;;;;;;5051027;28;20216;-78
2023/06/14 06:31:40;;;;;;;11.37;7.13;;;22.30;1.00;;;;;;5053100;28;20698;-79
2023/06/14 06:34:06;;;;;;;16.80;8.47;;;22.30;99.90;;;;;;5052259;28;20186;-75
2023/06/14 06:36:31;;;;;;;11.03;7.40;;;22.20;1.00;;;;;;5050519;28;20213;-80
2023/06/14 06:38:57;;;;;;;11.17;7.67;;;22.30;26.30;;;;;;5053224;28;20219;-80
2023/06/14 06:41:23;;;;;;;11.57;8.20;;;22.20;1.00;;;;;;5052537;28;20170;-80
2023/06/14 06:43:48;;;;;;;9.10;7.20;;;22.20;1.00;;;;;;5054035;28;20696;-79
2023/06/14 06:46:14;;;;;;;11.90;7.77;;;22.30;99.90;;;;;;5033917;28;20166;-81
2023/06/14 06:48:40;;;;;;;8.90;7.10;;;22.40;1.00;;;;;;5051001;28;20215;-78
2023/06/14 06:51:06;;;;;;;10.33;7.20;;;22.60;99.90;;;;;;5052458;28;20247;-79
2023/06/14 06:53:31;;;;;;;11.67;6.90;;;22.70;1.00;;;;;;5051539;28;20220;-80
2023/06/14 06:55:57;;;;;;;10.80;6.97;;;22.70;99.90;;;;;;5052196;28;20166;-81
2023/06/14 06:58:23;;;;;;;8.87;7.70;;;22.90;1.00;;;;;;5053313;28;20309;-82
2023/06/14 07:00:49;;;;;;;11.63;6.87;;;22.80;99.90;;;;;;5052628;28;20534;-81
2023/06/14 07:03:14;;;;;;;12.03;6.70;;;22.90;1.00;;;;;;5053163;28;20170;-79
2023/06/14 07:05:40;;;;;;;9.40;6.60;;;23.10;99.90;;;;;;5052518;28;20172;-81
2023/06/14 07:08:07;;;;;;;9.70;7.40;;;23.30;1.00;;;;;;5050469;28;20257;-81
2023/06/14 07:10:34;;;;;;;9.17;7.00;;;23.40;1.00;;;;;;5058834;28;20245;-79
2023/06/14 07:12:59;;;;;;;9.13;6.60;;;23.40;1.00;;;;;;5053862;28;20239;-80
2023/06/14 07:15:25;;;;;;;9.77;6.50;;;23.30;99.90;;;;;;5054486;28;20640;-82
2023/06/14 07:17:52;;;;;;;12.13;6.43;;;23.30;99.90;;;;;;5052616;28;20270;-82
2023/06/14 07:20:18;;;;;;;10.93;6.80;;;23.40;99.90;;;;;;5052606;28;20258;-81
2023/06/14 07:22:44;;;;;;;8.20;6.00;;;23.60;1.00;;;;;;5056840;28;20215;-79
2023/06/14 07:25:14;;;;;;;11.10;6.43;;;23.70;1.00;;;;;;5058185;28;20203;-83
2023/06/14 07:27:43;;;;;;;11.10;7.07;;;23.60;1.00;;;;;;5058898;28;20251;-80
2023/06/14 07:30:10;;;;;;;8.10;6.00;;;23.70;1.00;;;;;;5061312;28;20291;-82
2023/06/14 07:32:36;;;;;;;9.93;6.50;;;23.80;1.00;;;;;;5064284;28;20176;-82
2023/06/14 07:35:03;;;;;;;13.27;6.53;;;23.90;1.00;;;;;;5060447;28;20187;-79
2023/06/14 07:37:28;;;;;;;8.70;5.90;;;23.90;99.90;;;;;;5056942;28;20208;-82
2023/06/14 07:39:55;;;;;;;10.93;6.30;;;23.80;79.10;;;;;;5054447;28;20204;-78
2023/06/14 07:42:21;;;;;;;9.63;6.10;;;23.70;5.80;;;;;;5055626;28;20194;-77
2023/06/14 07:44:46;;;;;;;8.20;6.17;;;23.60;99.90;;;;;;5054454;28;20188;-78
2023/06/14 07:47:12;;;;;;;11.57;6.07;;;23.70;99.90;;;;;;5055159;28;20698;-82
2023/06/14 07:49:38;;;;;;;12.17;6.50;;;23.90;99.90;;;;;;5058332;28;20177;-84
2023/06/14 07:52:04;;;;;;;9.40;6.10;;;24.00;99.90;;;;;;5050098;28;20178;-85
2023/06/14 07:54:31;;;;;;;8.00;6.33;;;24.20;1.00;;;;;;5037298;28;20314;-86
2023/06/14 07:56:58;;;;;;;9.53;6.57;;;24.20;1.00;;;;;;5045288;28;20207;-86
2023/06/14 07:59:25;;;;;;;10.20;5.80;;;24.20;1.00;;;;;;5057487;28;20173;-83
2023/06/14 08:01:52;;;;;;;9.10;6.20;;;24.40;1.00;;;;;;5058242;28;20331;-84
2023/06/14 08:04:17;;;;;;;12.93;6.47;;;24.40;99.90;;;;;;5056709;28;20161;-84
2023/06/14 08:06:45;;;;;;;11.00;5.73;;;24.40;99.90;;;;;;5066608;28;20211;-88
2023/06/14 08:09:13;;;;;;;11.13;6.73;;;24.30;99.90;;;;;;5064690;28;20208;-83
2023/06/14 08:11:39;;;;;;;9.07;6.20;;;24.40;99.90;;;;;;5051083;28;20315;-87
2023/06/14 08:14:04;;;;;;;7.97;6.53;;;24.40;99.90;;;;;;5058457;28;20222;-88
2023/06/14 08:16:30;;;;;;;9.77;5.83;;;24.50;99.90;;;;;;5059575;28;20571;-83
2023/06/14 08:18:56;;;;;;;12.70;6.40;;;24.50;16.30;;;;;;5050509;28;20316;-83
2023/06/14 08:21:21;;;;;;;8.80;6.63;;;24.60;1.00;;;;;;5071382;28;20184;-82
2023/06/14 08:23:47;;;;;;;8.10;5.87;;;24.80;1.00;;;;;;5070960;28;20612;-80
2023/06/14 08:26:13;;;;;;;7.63;6.20;;;24.70;1.00;;;;;;5060578;28;20177;-83
2023/06/14 08:28:38;;;;;;;12.03;6.37;;;24.60;1.00;;;;;;5057820;28;20680;-81
2023/06/14 08:31:04;;;;;;;9.73;5.53;;;24.80;1.00;;;;;;5058815;28;20636;-84
2023/06/14 08:33:32;;;;;;;10.50;5.93;;;24.80;1.00;;;;;;5055254;28;20653;-84
2023/06/14 08:35:58;;;;;;;7.80;5.80;;;24.80;99.90;;;;;;5055438;28;20173;-81
2023/06/14 08:38:30;;;;;;;13.87;6.97;;;24.70;99.90;;;;;;5025343;28;20188;-80
2023/06/14 08:40:58;;;;;;;11.93;6.63;;;24.80;1.00;;;;;;5054686;28;20188;-81
2023/06/14 08:43:24;;;;;;;10.40;5.90;;;24.70;1.00;;;;;;5056102;28;20169;-79
2023/06/14 08:45:59;;;;;;;10.87;6.40;;;24.70;1.00;;;;;;5070821;28;20226;-80
2023/06/14 08:48:26;;;;;;;9.67;5.80;;;24.70;1.00;;;;;;5056117;28;20216;-80
2023/06/14 08:51:01;;;;;;;9.00;6.10;;;24.80;1.00;;;;;;5077914;28;20177;-80
2023/06/14 08:53:31;;;;;;;9.77;5.50;;;24.70;1.00;;;;;;5049027;28;20185;-81
2023/06/14 08:56:01;;;;;;;12.57;5.83;;;24.70;1.00;;;;;;5057922;28;20156;-81
2023/06/14 08:58:29;;;;;;;14.47;6.70;;;24.70;1.00;;;;;;5076349;28;20206;-81
2023/06/14 09:00:59;;;;;;;8.70;5.57;;;24.70;1.00;;;;;;5076468;28;20169;-78
2023/06/14 09:03:29;;;;;;;10.83;6.10;;;24.60;1.00;;;;;;5058814;28;20177;-80
2023/06/14 09:06:01;;;;;;;9.03;5.30;;;24.50;1.00;;;;;;5032715;28;20184;-82
2023/06/14 09:08:30;;;;;;;9.37;5.97;;;24.50;1.00;;;;;;5040135;28;20209;-81
2023/06/14 09:10:57;;;;;;;6.73;5.87;;;24.60;99.90;;;;;;5037262;28;20177;-81
2023/06/14 09:13:26;;;;;;;10.00;6.20;;;24.60;99.90;;;;;;5056090;28;20541;-81
2023/06/14 09:15:54;;;;;;;9.47;5.67;;;24.70;99.90;;;;;;5056342;28;20173;-82
2023/06/14 09:18:21;;;;;;;11.40;6.50;;;24.90;99.90;;;;;;5055401;28;20180;-82
2023/06/14 09:20:50;;;;;;;9.27;5.77;;;24.80;99.90;;;;;;5056129;28;20624;-82
2023/06/14 09:23:21;;;;;;;11.70;6.37;;;24.70;1.00;;;;;;5054934;28;20169;-83
2023/06/14 09:25:50;;;;;;;10.13;5.40;;;24.60;40.20;;;;;;5055950;28;20165;-81
2023/06/14 09:28:15;;;;;;;7.40;6.03;;;24.70;92.70;;;;;;5038217;28;20220;-82
2023/06/14 09:30:41;;;;;;;7.47;5.53;;;24.70;99.90;;;;;;5056151;28;20552;-83
2023/06/14 09:33:07;;;;;;;10.80;6.40;;;24.80;85.00;;;;;;5055210;28;20682;-82
2023/06/14 09:35:33;;;;;;;10.07;6.03;;;24.80;45.00;;;;;;5054007;28;20165;-83
2023/06/14 09:37:58;;;;;;;14.73;6.53;;;25.00;99.90;;;;;;5056014;28;20204;-81
2023/06/14 09:40:24;;;;;;;14.77;6.53;;;25.00;1.00;;;;;;5055364;28;20167;-82
2023/06/14 09:42:51;;;;;;;10.17;6.00;;;25.20;1.00;;;;;;5054898;28;20244;-83
2023/06/14 09:45:21;;;;;;;10.37;6.33;;;25.30;1.00;;;;;;5053473;28;20176;-84
2023/06/14 09:47:49;;;;;;;7.93;5.80;;;25.30;1.00;;;;;;5056361;28;20290;-81
2023/06/14 09:50:15;;;;;;;10.57;5.80;;;25.20;1.00;;;;;;5031785;28;20181;-83
2023/06/14 09:52:44;;;;;;;13.10;6.03;;;25.20;99.90;;;;;;5062434;28;20197;-82
2023/06/14 09:55:13;;;;;;;13.20;6.50;;;25.30;99.90;;;;;;5034036;28;20173;-79
2023/06/14 09:57:42;;;;;;;12.83;5.63;;;25.30;99.90;;;;;;5055959;28;20197;-82
2023/06/14 10:00:12;;;;;;;10.43;5.80;;;25.40;99.90;;;;;;5055974;28;20192;-83
2023/06/14 10:02:42;;;;;;;8.83;5.50;;;25.20;1.00;;;;;;5049162;28;20174;-83
2023/06/14 10:05:12;;;;;;;8.67;4.87;;;25.20;1.00;;;;;;5026708;28;20197;-83
2023/06/14 10:07:41;;;;;;;7.97;5.47;;;25.40;1.00;;;;;;5038034;28;20201;-81
2023/06/14 10:10:07;;;;;;;15.13;6.30;;;25.40;12.60;;;;;;5023404;28;20181;-82
2023/06/14 10:12:33;;;;;;;10.13;5.60;;;25.40;99.90;;;;;;5026247;28;20182;-84
2023/06/14 10:15:01;;;;;;;11.57;5.87;;;25.60;22.40;;;;;;5045192;28;20192;-82
2023/06/14 10:17:42;;;;;;;7.53;5.70;;;25.70;1.00;;;;;;5043889;28;20247;-83
2023/06/14 10:20:32;;;;;;;9.77;5.17;;;25.90;1.00;;;;;;5039535;28;20168;-82
2023/06/14 10:23:07;;;;;;;12.10;5.13;;;25.90;99.90;;;;;;5035562;28;20233;-83
2023/06/14 10:25:33;;;;;;;5.07;4.57;;;25.80;99.90;;;;;;5046023;28;20170;-81
2023/06/14 10:28:16;;;;;;;10.07;5.60;;;25.60;99.90;;;;;;5048884;28;20233;-82
2023/06/14 10:31:09;;;;;;;9.40;5.50;;;25.80;99.90;;;;;;5038280;28;20177;-83
2023/06/14 10:33:39;;;;;;;8.00;4.87;;;25.70;99.90;;;;;;5018327;28;20166;-83
2023/06/14 10:36:34;;;;;;;7.50;4.80;;;25.60;99.90;;;;;;5018100;28;20181;-82
2023/06/14 10:39:06;;;;;;;6.33;4.50;;;25.80;27.10;;;;;;5035803;28;20687;-82
2023/06/14 10:41:34;;;;;;;9.30;4.87;;;26.00;1.00;;;;;;5016455;28;20212;-82
2023/06/14 10:44:32;;;;;;;9.57;5.07;;;26.10;1.00;;;;;;5046644;28;20629;-82
2023/06/14 10:47:01;;;;;;;9.63;5.20;;;26.20;1.00;;;;;;5027156;28;20198;-81
2023/06/14 10:49:41;;;;;;;9.60;5.63;;;26.30;1.00;;;;;;5020883;28;20306;-83
2023/06/14 10:52:21;;;;;;;5.57;4.67;;;26.20;1.00;;;;;;5038792;28;20302;-81
2023/06/14 10:55:10;;;;;;;9.27;4.83;;;26.00;1.00;;;;;;5055633;28;20180;-82
2023/06/14 10:57:39;;;;;;;8.63;4.70;;;26.20;1.00;;;;;;5035252;28;20565;-83
2023/06/14 11:00:16;;;;;;;11.10;5.10;;;26.30;1.00;;;;;;5053679;28;20176;-82
2023/06/14 11:03:21;;;;;;;11.57;5.30;;;26.50;1.00;;;;;;5054927;28;20206;-82
2023/06/14 11:05:55;;;;;;;9.83;5.77;;;26.50;1.00;;;;;;5054333;28;20616;-81
2023/06/14 11:08:54;;;;;;;7.80;5.07;;;26.70;1.00;;;;;;5038563;28;20227;-82
2023/06/14 11:11:23;;;;;;;7.33;4.70;;;26.60;1.00;;;;;;5054967;28;20531;-80
2023/06/14 11:13:50;;;;;;;8.37;4.77;;;26.50;1.00;;;;;;5054271;28;20207;-84
2023/06/14 11:16:18;;;;;;;7.53;4.27;;;26.40;1.00;;;;;;5056009;28;20704;-82
2023/06/14 11:18:49;;;;;;;8.00;4.60;;;26.40;1.00;;;;;;5037955;28;20200;-83
2023/06/14 11:21:18;;;;;;;5.97;4.70;;;26.50;1.00;;;;;;5053962;28;20557;-82
2023/06/14 11:23:50;;;;;;;9.13;4.93;;;26.50;1.00;;;;;;5053543;28;20165;-81
2023/06/14 11:26:16;;;;;;;7.40;4.80;;;26.40;1.00;;;;;;5036307;28;20188;-81
2023/06/14 11:28:41;;;;;;;8.77;5.13;;;26.40;1.00;;;;;;5035999;28;20209;-82
2023/06/14 11:31:09;;;;;;;6.33;5.00;;;26.00;1.00;;;;;;5036536;28;20217;-82
2023/06/14 11:33:35;;;;;;;8.90;4.63;;;26.00;99.90;;;;;;5035098;28;20176;-78
2023/06/14 11:36:08;;;;;;;7.30;4.50;;;26.00;1.00;;;;;;5051067;28;20177;-74
2023/06/14 11:38:37;;;;;;;8.47;5.23;;;26.20;1.00;;;;;;5051113;28;20181;-77
2023/06/14 11:41:02;;;;;;;8.07;4.50;;;26.50;1.00;;;;;;5054026;28;20199;-84
2023/06/14 11:43:29;;;;;;;11.60;5.03;;;26.60;1.00;;;;;;5052866;28;20181;-85
2023/06/14 11:45:54;;;;;;;9.87;4.77;;;26.60;1.00;;;;;;5037379;28;20173;-82
2023/06/14 11:48:21;;;;;;;7.33;4.03;;;26.50;1.00;;;;;;5066769;28;20202;-80
2023/06/14 11:50:50;;;;;;;7.50;4.50;;;26.60;1.00;;;;;;5068845;28;20215;-82
2023/06/14 11:53:16;;;;;;;6.40;4.80;;;26.30;99.90;;;;;;5056223;28;20602;-83
2023/06/14 11:55:44;;;;;;;8.37;4.60;;;26.20;1.00;;;;;;5053645;28;20177;-82
2023/06/14 11:58:11;;;;;;;7.50;5.23;;;26.10;1.00;;;;;;5050926;28;20207;-84
2023/06/14 12:00:37;;;;;;;6.87;4.60;;;26.30;1.00;;;;;;5054452;28;20181;-82
2023/06/14 12:03:03;;;;;;;8.27;4.70;;;26.50;1.00;;;;;;5043140;28;20173;-82
2023/06/14 12:05:29;;;;;;;9.00;4.53;;;26.50;1.00;;;;;;5067615;28;20165;-82
2023/06/14 12:08:03;;;;;;;8.77;4.53;;;26.50;1.00;;;;;;5067655;28;20208;-84
2023/06/14 12:10:29;;;;;;;6.03;4.57;;;26.50;1.00;;;;;;5046633;28;20178;-85
2023/06/14 12:12:59;;;;;;;8.97;4.40;;;26.40;1.00;;;;;;5038889;28;20188;-83
2023/06/14 12:15:28;;;;;;;6.90;4.20;;;26.80;1.00;;;;;;5051995;28;20167;-83
2023/06/14 12:17:54;;;;;;;8.17;4.47;;;26.90;99.90;;;;;;5049992;28;20199;-83
2023/06/14 12:20:21;;;;;;;8.70;4.17;;;26.70;99.90;;;;;;5047364;28;20220;-83
2023/06/14 12:22:56;;;;;;;6.00;4.57;;;26.30;99.90;;;;;;5056024;28;20168;-82
2023/06/14 12:25:35;;;;;;;7.27;4.60;;;26.30;99.90;;;;;;5051733;28;20165;-81
2023/06/14 12:28:09;;;;;;;10.60;4.53;;;26.40;99.90;;;;;;5034387;28;20220;-83
2023/06/14 12:30:36;;;;;;;5.60;3.70;;;26.50;99.90;;;;;;5031232;28;20180;-84
2023/06/14 12:33:03;;;;;;;7.43;4.00;;;26.60;99.90;;;;;;5049245;28;20173;-81
2023/06/14 12:35:28;;;;;;;8.32;4.70;;;26.70;99.90;;;;;;5056694;28;20182;-80
2023/06/14 12:37:54;;;;;;;7.07;4.40;;;26.80;99.90;;;;;;5057507;28;20729;-82
2023/06/14 12:40:20;;;;;;;8.07;4.17;;;27.00;99.90;;;;;;5056048;28;20221;-81
2023/06/14 12:42:48;;;;;;;9.60;4.30;;;27.20;99.90;;;;;;5059547;28;20220;-82
2023/06/14 12:45:14;;;;;;;9.33;4.20;;;27.10;99.90;;;;;;5078279;28;20146;-81
2023/06/14 12:47:40;;;;;;;5.77;4.10;;;26.90;99.90;;;;;;5061669;28;20174;-83
2023/06/14 12:50:12;;;;;;;5.23;4.00;;;26.70;99.90;;;;;;5079853;28;20232;-84
2023/06/14 12:52:44;;;;;;;9.43;4.23;;;26.80;99.90;;;;;;5093985;28;20166;-82
2023/06/14 12:55:14;;;;;;;6.43;3.77;;;26.60;99.90;;;;;;5078130;28;20182;-81
2023/06/14 12:57:49;;;;;;;7.77;4.10;;;26.60;99.90;;;;;;5079211;28;20177;-81
2023/06/14 13:00:17;;;;;;;6.50;3.80;;;27.00;99.90;;;;;;5093175;28;20177;-82
2023/06/14 13:02:51;;;;;;;8.02;3.80;;;27.10;99.90;;;;;;5078430;28;20142;-82
2023/06/14 13:05:17;;;;;;;11.53;4.00;;;27.20;99.90;;;;;;5076742;28;20169;-83
2023/06/14 13:07:44;;;;;;;9.53;4.40;;;27.30;99.90;;;;;;5077480;28;20242;-80
2023/06/14 13:10:11;;;;;;;6.40;4.40;;;27.20;99.90;;;;;;5076414;28;20199;-82
2023/06/14 13:12:36;;;;;;;22.20;5.47;;;27.30;99.90;;;;;;5074837;28;20222;-80
2023/06/14 13:15:04;;;;;;;11.48;3.95;;;27.50;99.90;;;;;;5075822;28;20265;-83
2023/06/14 13:17:30;;;;;;;8.10;3.53;;;27.30;99.90;;;;;;5058859;28;20167;-82
2023/06/14 13:19:55;;;;;;;8.87;3.90;;;26.90;99.90;;;;;;5074273;28;20621;-82
2023/06/14 13:22:22;;;;;;;6.53;3.83;;;26.90;99.90;;;;;;5071430;28;20172;-82
2023/06/14 13:24:49;;;;;;;7.03;3.93;;;26.80;99.90;;;;;;5062406;28;20179;-82
2023/06/14 13:27:15;;;;;;;7.00;3.87;;;26.80;99.90;;;;;;5071858;28;20249;-81
2023/06/14 13:29:42;;;;;;;6.33;3.80;;;26.90;99.90;;;;;;5055820;28;20263;-83
2023/06/14 13:32:07;;;;;;;7.80;3.63;;;26.90;99.90;;;;;;5054816;28;20173;-84
2023/06/14 13:34:33;;;;;;;8.00;3.63;;;27.20;99.90;;;;;;5055388;28;20167;-81
2023/06/14 13:36:59;;;;;;;9.77;3.63;;;27.40;99.90;;;;;;5058501;28;20208;-81
2023/06/14 13:39:25;;;;;;;4.97;3.67;;;27.20;99.90;;;;;;5049114;28;20184;-82
2023/06/14 13:41:51;;;;;;;9.43;3.60;;;27.20;99.90;;;;;;5066132;28;20180;-82
2023/06/14 13:44:21;;;;;;;7.13;3.97;;;27.20;99.90;;;;;;5067689;28;20184;-80
2023/06/14 13:46:47;;;;;;;8.37;3.60;;;26.90;99.90;;;;;;5068888;28;20189;-85
2023/06/14 13:49:12;;;;;;;5.50;4.00;;;26.80;99.90;;;;;;5071129;28;20208;-83
2023/06/14 13:51:39;;;;;;;8.03;3.50;;;26.70;99.90;;;;;;5061008;28;20174;-82
2023/06/14 13:54:06;;;;;;;8.00;3.27;;;26.70;99.90;;;;;;5054246;28;20188;-85
2023/06/14 13:56:35;;;;;;;7.00;3.30;;;26.60;99.90;;;;;;5068105;28;20183;-81
2023/06/14 13:59:00;;;;;;;7.63;3.23;;;26.60;99.90;;;;;;5037632;28;20173;-84
2023/06/14 14:01:28;;;;;;;8.73;3.20;;;26.70;99.90;;;;;;5054671;28;20157;-84
2023/06/14 14:03:54;;;;;;;6.80;2.90;;;27.10;99.90;;;;;;5036664;28;20212;-83
2023/06/14 14:06:20;;;;;;;13.13;3.30;;;26.90;99.90;;;;;;5036274;28;20265;-82
2023/06/14 14:08:46;;;;;;;9.30;3.50;;;26.90;99.90;;;;;;5051942;28;20216;-81
2023/06/14 14:11:12;;;;;;;5.63;2.57;;;27.10;99.90;;;;;;5050859;28;20256;-83
2023/06/14 14:13:39;;;;;;;7.67;3.00;;;27.20;99.90;;;;;;5053620;28;20178;-81
2023/06/14 14:16:06;;;;;;;7.27;2.80;;;27.20;99.90;;;;;;5056263;28;20169;-80
2023/06/14 14:18:32;;;;;;;3.60;2.67;;;27.20;99.90;;;;;;5061243;28;20219;-82
2023/06/14 14:21:00;;;;;;;11.10;2.77;;;27.40;99.90;;;;;;5061060;28;20202;-80
2023/06/14 14:23:26;;;;;;;11.70;2.77;;;27.50;99.90;;;;;;5058750;28;20654;-80
2023/06/14 14:25:52;;;;;;;4.67;2.40;;;27.20;99.90;;;;;;5053597;28;20263;-81
2023/06/14 14:28:19;;;;;;;5.17;2.70;;;27.00;99.90;;;;;;5036169;28;20280;-82
2023/06/14 14:30:45;;;;;;;4.63;2.50;;;26.90;99.90;;;;;;5054425;28;20181;-84
2023/06/14 14:33:15;;;;;;;5.10;2.20;;;26.80;99.90;;;;;;5054170;28;20175;-82
2023/06/14 14:35:42;;;;;;;7.57;2.30;;;26.70;99.90;;;;;;5036408;28;20169;-83